Portada
METAR-TAF:

METAR-TAF

Aeroports :

Malakula, Vanuatu

latitud: 16-27-26S, longitud: 167-49-42E, altitud: 2 m

METAR: manca

Hora: 18:50 (07:50 UTC)

Pronòstic

L'informe es va fer fa 3 hores i 20 minuts, a les 04:30 UTC
Pronòstic vàlid del 19 a les 06 UTC al 20 a les 06 UTC
Vent 10 kt del Sud-Est
Visibilitat: 9000 m
Cel ennuvolat a una alçada de 2000 ft
Cel cobert a una alçada de 4000 ft
Escasses núvols a una alçada de 1000 ft
Cel ennuvolat a una alçada de 1800 ft
Cel cobert a una alçada de 3800 ft
xàfecs de pluja

TAF: NVSL 190430Z 1906/2006 13010KT 9999 BKN020 OVC040 INTER 1906/1912 9000 SHRA FEW010 BKN018 OVC038

Observacions i pronòstics meteorològics de més de 4000 aeroports (METAR i TAF).

Les estacions disponibles són els punts grocs i vermells al mapa.

Posi el ratolí al punt desitjat per veure el nom de l'estació.

Feu clic per veure les observacions i els pronòstics meteorològics.

Per canviar el mapa: feu clic els botons verds amb una creu de color negre per apropar; al botó verd amb un guió per allunyar la imatge; o en les fletxes verdes per a mapes adjacents.


METAR-TAF: